sensor_id;sensor_type;location;lat;lon;timestamp;P1;P2;P0
72031;PMS5003;49185;42.320;23.198;2024-02-21T00:02:08;2866.33;2866.33;2866.33
72031;PMS5003;49185;42.320;23.198;2024-02-21T00:04:33;2841.67;2841.67;2841.67
72031;PMS5003;49185;42.320;23.198;2024-02-21T00:06:58;2862.33;2862.33;2862.33
72031;PMS5003;49185;42.320;23.198;2024-02-21T00:09:24;2867.00;2867.00;2867.00
72031;PMS5003;49185;42.320;23.198;2024-02-21T00:11:49;2849.00;2849.00;2849.00
72031;PMS5003;49185;42.320;23.198;2024-02-21T00:14:15;2862.33;2862.33;2862.33
72031;PMS5003;49185;42.320;23.198;2024-02-21T00:16:40;2849.00;2849.00;2849.00
72031;PMS5003;49185;42.320;23.198;2024-02-21T00:19:05;2847.00;2847.00;2847.00
72031;PMS5003;49185;42.320;23.198;2024-02-21T00:21:31;2829.67;2829.67;2829.67
72031;PMS5003;49185;42.320;23.198;2024-02-21T00:23:56;2816.00;2816.00;2816.00
72031;PMS5003;49185;42.320;23.198;2024-02-21T00:26:22;2858.33;2858.33;2858.33
72031;PMS5003;49185;42.320;23.198;2024-02-21T00:28:47;2849.50;2849.50;2849.50
72031;PMS5003;49185;42.320;23.198;2024-02-21T00:31:13;2849.00;2849.00;2849.00
72031;PMS5003;49185;42.320;23.198;2024-02-21T00:33:38;2847.00;2847.00;2847.00
72031;PMS5003;49185;42.320;23.198;2024-02-21T00:36:04;2861.00;2861.00;2861.00
72031;PMS5003;49185;42.320;23.198;2024-02-21T00:38:29;2857.00;2857.00;2857.00
72031;PMS5003;49185;42.320;23.198;2024-02-21T00:40:55;2845.67;2845.67;2845.67
72031;PMS5003;49185;42.320;23.198;2024-02-21T00:43:20;2845.67;2845.67;2845.67
72031;PMS5003;49185;42.320;23.198;2024-02-21T00:45:45;2858.33;2858.33;2858.33
72031;PMS5003;49185;42.320;23.198;2024-02-21T00:48:11;2843.00;2843.00;2843.00
72031;PMS5003;49185;42.320;23.198;2024-02-21T00:50:36;2849.00;2849.00;2849.00
72031;PMS5003;49185;42.320;23.198;2024-02-21T00:53:01;2858.33;2858.33;2858.33
72031;PMS5003;49185;42.320;23.198;2024-02-21T00:55:27;2857.00;2857.00;2857.00
72031;PMS5003;49185;42.320;23.198;2024-02-21T00:57:52;2845.67;2845.67;2845.67
72031;PMS5003;49185;42.320;23.198;2024-02-21T01:00:18;2843.00;2843.00;2843.00
72031;PMS5003;49185;42.320;23.198;2024-02-21T01:02:43;2847.50;2847.50;2847.50
72031;PMS5003;49185;42.320;23.198;2024-02-21T01:05:09;2843.00;2843.00;2843.00
72031;PMS5003;49185;42.320;23.198;2024-02-21T01:07:34;2862.33;2862.33;2862.33
72031;PMS5003;49185;42.320;23.198;2024-02-21T01:09:59;2849.00;2849.00;2849.00
72031;PMS5003;49185;42.320;23.198;2024-02-21T01:12:25;2865.00;2865.00;2865.00
72031;PMS5003;49185;42.320;23.198;2024-02-21T01:14:50;2866.33;2866.33;2866.33
72031;PMS5003;49185;42.320;23.198;2024-02-21T01:17:16;2862.33;2862.33;2862.33
72031;PMS5003;49185;42.320;23.198;2024-02-21T01:19:41;2833.67;2833.67;2833.67
72031;PMS5003;49185;42.320;23.198;2024-02-21T01:22:06;2862.33;2862.33;2862.33
72031;PMS5003;49185;42.320;23.198;2024-02-21T01:24:32;2847.00;2847.00;2847.00
72031;PMS5003;49185;42.320;23.198;2024-02-21T01:26:58;2865.00;2865.00;2865.00
72031;PMS5003;49185;42.320;23.198;2024-02-21T01:29:23;2853.00;2853.00;2853.00
72031;PMS5003;49185;42.320;23.198;2024-02-21T01:31:48;2843.00;2843.00;2843.00
72031;PMS5003;49185;42.320;23.198;2024-02-21T01:34:14;2843.00;2843.00;2843.00
72031;PMS5003;49185;42.320;23.198;2024-02-21T01:36:39;2845.67;2845.67;2845.67
72031;PMS5003;49185;42.320;23.198;2024-02-21T01:39:04;2821.33;2821.33;2821.33
72031;PMS5003;49185;42.320;23.198;2024-02-21T01:41:30;2816.50;2816.50;2816.50
72031;PMS5003;49185;42.320;23.198;2024-02-21T01:43:56;2829.67;2829.67;2829.67
72031;PMS5003;49185;42.320;23.198;2024-02-21T01:46:22;2841.67;2841.67;2841.67
72031;PMS5003;49185;42.320;23.198;2024-02-21T01:48:48;2847.50;2847.50;2847.50
72031;PMS5003;49185;42.320;23.198;2024-02-21T01:51:14;2843.00;2843.00;2843.00
72031;PMS5003;49185;42.320;23.198;2024-02-21T01:53:42;2849.50;2849.50;2849.50
72031;PMS5003;49185;42.320;23.198;2024-02-21T01:56:08;2835.50;2835.50;2835.50
72031;PMS5003;49185;42.320;23.198;2024-02-21T01:58:34;2821.00;2821.00;2821.00
72031;PMS5003;49185;42.320;23.198;2024-02-21T02:01:03;2830.00;2830.00;2830.00
72031;PMS5003;49185;42.320;23.198;2024-02-21T02:03:29;2847.50;2847.50;2847.50
72031;PMS5003;49185;42.320;23.198;2024-02-21T02:05:54;2835.50;2835.50;2835.50
72031;PMS5003;49185;42.320;23.198;2024-02-21T02:08:20;2850.33;2850.33;2850.33
72031;PMS5003;49185;42.320;23.198;2024-02-21T02:10:46;2839.50;2839.50;2839.50
72031;PMS5003;49185;42.320;23.198;2024-02-21T02:13:11;2835.00;2835.00;2835.00
72031;PMS5003;49185;42.320;23.198;2024-02-21T02:15:37;2835.00;2835.00;2835.00
72031;PMS5003;49185;42.320;23.198;2024-02-21T02:18:07;2847.50;2847.50;2847.50
72031;PMS5003;49185;42.320;23.198;2024-02-21T02:20:33;2851.50;2851.50;2851.50
72031;PMS5003;49185;42.320;23.198;2024-02-21T02:23:04;2833.67;2833.67;2833.67
72031;PMS5003;49185;42.320;23.198;2024-02-21T02:25:33;2839.50;2839.50;2839.50
72031;PMS5003;49185;42.320;23.198;2024-02-21T02:27:58;2857.00;2857.00;2857.00
72031;PMS5003;49185;42.320;23.198;2024-02-21T02:30:24;2857.00;2857.00;2857.00
72031;PMS5003;49185;42.320;23.198;2024-02-21T02:32:49;2861.00;2861.00;2861.00
72031;PMS5003;49185;42.320;23.198;2024-02-21T02:35:14;2862.33;2862.33;2862.33
72031;PMS5003;49185;42.320;23.198;2024-02-21T02:37:40;2850.33;2850.33;2850.33
72031;PMS5003;49185;42.320;23.198;2024-02-21T02:40:06;2853.00;2853.00;2853.00
72031;PMS5003;49185;42.320;23.198;2024-02-21T02:42:32;2859.00;2859.00;2859.00
72031;PMS5003;49185;42.320;23.198;2024-02-21T02:44:57;2850.33;2850.33;2850.33
72031;PMS5003;49185;42.320;23.198;2024-02-21T02:47:23;2869.00;2869.00;2869.00
72031;PMS5003;49185;42.320;23.198;2024-02-21T02:49:48;2853.00;2853.00;2853.00
72031;PMS5003;49185;42.320;23.198;2024-02-21T02:52:13;2865.00;2865.00;2865.00
72031;PMS5003;49185;42.320;23.198;2024-02-21T02:54:39;2853.00;2853.00;2853.00
72031;PMS5003;49185;42.320;23.198;2024-02-21T02:57:04;2850.33;2850.33;2850.33
72031;PMS5003;49185;42.320;23.198;2024-02-21T02:59:30;2858.33;2858.33;2858.33
72031;PMS5003;49185;42.320;23.198;2024-02-21T03:01:55;2866.33;2866.33;2866.33
72031;PMS5003;49185;42.320;23.198;2024-02-21T03:04:20;2854.33;2854.33;2854.33
72031;PMS5003;49185;42.320;23.198;2024-02-21T03:06:46;2873.00;2873.00;2873.00
72031;PMS5003;49185;42.320;23.198;2024-02-21T03:09:11;2853.00;2853.00;2853.00
72031;PMS5003;49185;42.320;23.198;2024-02-21T03:11:36;2858.33;2858.33;2858.33
72031;PMS5003;49185;42.320;23.198;2024-02-21T03:14:02;2874.33;2874.33;2874.33
72031;PMS5003;49185;42.320;23.198;2024-02-21T03:16:27;2874.33;2874.33;2874.33
72031;PMS5003;49185;42.320;23.198;2024-02-21T03:18:53;2877.00;2877.00;2877.00
72031;PMS5003;49185;42.320;23.198;2024-02-21T03:21:18;2877.00;2877.00;2877.00
72031;PMS5003;49185;42.320;23.198;2024-02-21T03:23:43;2873.00;2873.00;2873.00
72031;PMS5003;49185;42.320;23.198;2024-02-21T03:26:09;2869.00;2869.00;2869.00
72031;PMS5003;49185;42.320;23.198;2024-02-21T03:28:34;2850.33;2850.33;2850.33
72031;PMS5003;49185;42.320;23.198;2024-02-21T03:30:59;2845.67;2845.67;2845.67
72031;PMS5003;49185;42.320;23.198;2024-02-21T03:33:25;2862.33;2862.33;2862.33
72031;PMS5003;49185;42.320;23.198;2024-02-21T03:35:50;2865.00;2865.00;2865.00
72031;PMS5003;49185;42.320;23.198;2024-02-21T03:38:15;2847.00;2847.00;2847.00
72031;PMS5003;49185;42.320;23.198;2024-02-21T03:40:41;2849.00;2849.00;2849.00
72031;PMS5003;49185;42.320;23.198;2024-02-21T03:43:06;2845.67;2845.67;2845.67
72031;PMS5003;49185;42.320;23.198;2024-02-21T03:45:31;2845.67;2845.67;2845.67
72031;PMS5003;49185;42.320;23.198;2024-02-21T03:47:57;2865.00;2865.00;2865.00
72031;PMS5003;49185;42.320;23.198;2024-02-21T03:50:22;2849.00;2849.00;2849.00
72031;PMS5003;49185;42.320;23.198;2024-02-21T03:52:47;2847.00;2847.00;2847.00
72031;PMS5003;49185;42.320;23.198;2024-02-21T03:55:13;2858.33;2858.33;2858.33
72031;PMS5003;49185;42.320;23.198;2024-02-21T03:57:38;2847.00;2847.00;2847.00
72031;PMS5003;49185;42.320;23.198;2024-02-21T04:00:04;2862.33;2862.33;2862.33
72031;PMS5003;49185;42.320;23.198;2024-02-21T04:02:30;2867.00;2867.00;2867.00
72031;PMS5003;49185;42.320;23.198;2024-02-21T04:04:55;2862.33;2862.33;2862.33
72031;PMS5003;49185;42.320;23.198;2024-02-21T04:07:21;2862.33;2862.33;2862.33
72031;PMS5003;49185;42.320;23.198;2024-02-21T04:09:46;2849.00;2849.00;2849.00
72031;PMS5003;49185;42.320;23.198;2024-02-21T04:12:11;2843.00;2843.00;2843.00
72031;PMS5003;49185;42.320;23.198;2024-02-21T04:14:37;2853.00;2853.00;2853.00
72031;PMS5003;49185;42.320;23.198;2024-02-21T04:17:02;2839.00;2839.00;2839.00
72031;PMS5003;49185;42.320;23.198;2024-02-21T04:19:28;2835.00;2835.00;2835.00
72031;PMS5003;49185;42.320;23.198;2024-02-21T04:21:53;2835.00;2835.00;2835.00
72031;PMS5003;49185;42.320;23.198;2024-02-21T04:24:18;2857.00;2857.00;2857.00
72031;PMS5003;49185;42.320;23.198;2024-02-21T04:26:44;2829.67;2829.67;2829.67
72031;PMS5003;49185;42.320;23.198;2024-02-21T04:29:09;2845.67;2845.67;2845.67
72031;PMS5003;49185;42.320;23.198;2024-02-21T04:31:34;2837.67;2837.67;2837.67
72031;PMS5003;49185;42.320;23.198;2024-02-21T04:34:00;2862.33;2862.33;2862.33
72031;PMS5003;49185;42.320;23.198;2024-02-21T04:36:25;2862.33;2862.33;2862.33
72031;PMS5003;49185;42.320;23.198;2024-02-21T04:38:51;2841.67;2841.67;2841.67
72031;PMS5003;49185;42.320;23.198;2024-02-21T04:41:16;2857.00;2857.00;2857.00
72031;PMS5003;49185;42.320;23.198;2024-02-21T04:43:41;2869.00;2869.00;2869.00
72031;PMS5003;49185;42.320;23.198;2024-02-21T04:46:07;2853.00;2853.00;2853.00
72031;PMS5003;49185;42.320;23.198;2024-02-21T04:48:32;2870.33;2870.33;2870.33
72031;PMS5003;49185;42.320;23.198;2024-02-21T04:50:58;2862.33;2862.33;2862.33
72031;PMS5003;49185;42.320;23.198;2024-02-21T04:53:23;2874.33;2874.33;2874.33
72031;PMS5003;49185;42.320;23.198;2024-02-21T04:55:48;2873.00;2873.00;2873.00
72031;PMS5003;49185;42.320;23.198;2024-02-21T04:58:14;2853.00;2853.00;2853.00
72031;PMS5003;49185;42.320;23.198;2024-02-21T05:00:39;2849.00;2849.00;2849.00
72031;PMS5003;49185;42.320;23.198;2024-02-21T05:03:05;2833.67;2833.67;2833.67
72031;PMS5003;49185;42.320;23.198;2024-02-21T05:05:30;2865.00;2865.00;2865.00
72031;PMS5003;49185;42.320;23.198;2024-02-21T05:07:55;2847.00;2847.00;2847.00
72031;PMS5003;49185;42.320;23.198;2024-02-21T05:10:21;2866.33;2866.33;2866.33
72031;PMS5003;49185;42.320;23.198;2024-02-21T05:12:46;2850.33;2850.33;2850.33
72031;PMS5003;49185;42.320;23.198;2024-02-21T05:15:11;2862.33;2862.33;2862.33
72031;PMS5003;49185;42.320;23.198;2024-02-21T05:17:38;2857.00;2857.00;2857.00
72031;PMS5003;49185;42.320;23.198;2024-02-21T05:20:03;2853.00;2853.00;2853.00
72031;PMS5003;49185;42.320;23.198;2024-02-21T05:22:29;2847.00;2847.00;2847.00
72031;PMS5003;49185;42.320;23.198;2024-02-21T05:24:54;2866.33;2866.33;2866.33
72031;PMS5003;49185;42.320;23.198;2024-02-21T05:27:19;2849.00;2849.00;2849.00
72031;PMS5003;49185;42.320;23.198;2024-02-21T05:29:45;2849.00;2849.00;2849.00
72031;PMS5003;49185;42.320;23.198;2024-02-21T05:32:10;2866.33;2866.33;2866.33
72031;PMS5003;49185;42.320;23.198;2024-02-21T05:34:35;2862.33;2862.33;2862.33
72031;PMS5003;49185;42.320;23.198;2024-02-21T05:37:01;2865.00;2865.00;2865.00
72031;PMS5003;49185;42.320;23.198;2024-02-21T05:39:26;2850.33;2850.33;2850.33
72031;PMS5003;49185;42.320;23.198;2024-02-21T05:41:52;2850.33;2850.33;2850.33
72031;PMS5003;49185;42.320;23.198;2024-02-21T05:44:18;2853.00;2853.00;2853.00
72031;PMS5003;49185;42.320;23.198;2024-02-21T05:46:43;2863.00;2863.00;2863.00
72031;PMS5003;49185;42.320;23.198;2024-02-21T05:49:09;2861.00;2861.00;2861.00
72031;PMS5003;49185;42.320;23.198;2024-02-21T05:51:34;2858.33;2858.33;2858.33
72031;PMS5003;49185;42.320;23.198;2024-02-21T05:54:00;2863.00;2863.00;2863.00
72031;PMS5003;49185;42.320;23.198;2024-02-21T05:56:26;2865.00;2865.00;2865.00
72031;PMS5003;49185;42.320;23.198;2024-02-21T05:58:51;2862.33;2862.33;2862.33
72031;PMS5003;49185;42.320;23.198;2024-02-21T06:01:17;2862.33;2862.33;2862.33
72031;PMS5003;49185;42.320;23.198;2024-02-21T06:03:42;2866.33;2866.33;2866.33
72031;PMS5003;49185;42.320;23.198;2024-02-21T06:06:07;2850.33;2850.33;2850.33
72031;PMS5003;49185;42.320;23.198;2024-02-21T06:08:33;2869.00;2869.00;2869.00
72031;PMS5003;49185;42.320;23.198;2024-02-21T06:10:58;2869.00;2869.00;2869.00
72031;PMS5003;49185;42.320;23.198;2024-02-21T06:13:24;2873.00;2873.00;2873.00
72031;PMS5003;49185;42.320;23.198;2024-02-21T06:15:49;2863.67;2863.67;2863.67
72031;PMS5003;49185;42.320;23.198;2024-02-21T06:18:16;2855.00;2855.00;2855.00
72031;PMS5003;49185;42.320;23.198;2024-02-21T06:20:42;2889.00;2889.00;2889.00
72031;PMS5003;49185;42.320;23.198;2024-02-21T06:23:07;2886.33;2886.33;2886.33
72031;PMS5003;49185;42.320;23.198;2024-02-21T06:25:33;2890.33;2890.33;2890.33
72031;PMS5003;49185;42.320;23.198;2024-02-21T06:27:58;2893.00;2893.00;2893.00
72031;PMS5003;49185;42.320;23.198;2024-02-21T06:30:24;2898.33;2898.33;2898.33
72031;PMS5003;49185;42.320;23.198;2024-02-21T06:32:49;2886.33;2886.33;2886.33
72031;PMS5003;49185;42.320;23.198;2024-02-21T06:35:14;2902.33;2902.33;2902.33
72031;PMS5003;49185;42.320;23.198;2024-02-21T06:37:40;2893.00;2893.00;2893.00
72031;PMS5003;49185;42.320;23.198;2024-02-21T06:40:05;2881.00;2881.00;2881.00
72031;PMS5003;49185;42.320;23.198;2024-02-21T06:42:31;2919.00;2919.00;2919.00
72031;PMS5003;49185;42.320;23.198;2024-02-21T06:44:57;2906.33;2906.33;2906.33
72031;PMS5003;49185;42.320;23.198;2024-02-21T06:47:22;2938.67;2938.67;2938.67
72031;PMS5003;49185;42.320;23.198;2024-02-21T06:49:50;2933.33;2933.33;2933.33
72031;PMS5003;49185;42.320;23.198;2024-02-21T06:52:19;2948.00;2948.00;2948.00
72031;PMS5003;49185;42.320;23.198;2024-02-21T06:54:45;2973.00;2973.00;2973.00
72031;PMS5003;49185;42.320;23.198;2024-02-21T06:57:10;2977.00;2977.00;2977.00
72031;PMS5003;49185;42.320;23.198;2024-02-21T06:59:35;2964.00;2964.00;2964.00
72031;PMS5003;49185;42.320;23.198;2024-02-21T07:02:01;2974.00;2974.00;2974.00
72031;PMS5003;49185;42.320;23.198;2024-02-21T07:04:26;2990.00;2990.00;2990.00
72031;PMS5003;49185;42.320;23.198;2024-02-21T07:06:51;2990.00;2990.00;2990.00
72031;PMS5003;49185;42.320;23.198;2024-02-21T07:09:17;2955.67;2955.67;2955.67
72031;PMS5003;49185;42.320;23.198;2024-02-21T07:11:42;2985.00;2985.00;2985.00
72031;PMS5003;49185;42.320;23.198;2024-02-21T07:14:10;2997.00;2997.00;2997.00
72031;PMS5003;49185;42.320;23.198;2024-02-21T07:16:35;2998.33;2998.33;2998.33
72031;PMS5003;49185;42.320;23.198;2024-02-21T07:19:01;3002.33;3002.33;3002.33
72031;PMS5003;49185;42.320;23.198;2024-02-21T07:21:27;3010.00;3010.00;3010.00
72031;PMS5003;49185;42.320;23.198;2024-02-21T07:23:52;3005.67;3005.67;3005.67
72031;PMS5003;49185;42.320;23.198;2024-02-21T07:26:17;2990.00;2990.00;2990.00
72031;PMS5003;49185;42.320;23.198;2024-02-21T07:28:43;2996.67;2996.67;2996.67
72031;PMS5003;49185;42.320;23.198;2024-02-21T07:31:08;2996.67;2996.67;2996.67
72031;PMS5003;49185;42.320;23.198;2024-02-21T07:33:34;3027.67;3027.67;3027.67
72031;PMS5003;49185;42.320;23.198;2024-02-21T07:35:59;3005.67;3005.67;3005.67
72031;PMS5003;49185;42.320;23.198;2024-02-21T07:38:24;3011.33;3011.33;3011.33
72031;PMS5003;49185;42.320;23.198;2024-02-21T07:40:50;3007.00;3007.00;3007.00
72031;PMS5003;49185;42.320;23.198;2024-02-21T07:43:15;3036.00;3036.00;3036.00
72031;PMS5003;49185;42.320;23.198;2024-02-21T07:45:40;3045.00;3045.00;3045.00
72031;PMS5003;49185;42.320;23.198;2024-02-21T07:48:06;3051.33;3051.33;3051.33
72031;PMS5003;49185;42.320;23.198;2024-02-21T07:50:31;3033.33;3033.33;3033.33
72031;PMS5003;49185;42.320;23.198;2024-02-21T07:52:57;3049.67;3049.67;3049.67
72031;PMS5003;49185;42.320;23.198;2024-02-21T07:55:22;3015.33;3015.33;3015.33
72031;PMS5003;49185;42.320;23.198;2024-02-21T07:57:48;3031.67;3031.67;3031.67
72031;PMS5003;49185;42.320;23.198;2024-02-21T08:00:14;3033.33;3033.33;3033.33
72031;PMS5003;49185;42.320;23.198;2024-02-21T08:02:40;3025.50;3025.50;3025.50
72031;PMS5003;49185;42.320;23.198;2024-02-21T08:05:05;3018.67;3018.67;3018.67
72031;PMS5003;49185;42.320;23.198;2024-02-21T08:07:31;3024.33;3024.33;3024.33
72031;PMS5003;49185;42.320;23.198;2024-02-21T08:09:56;3012.33;3012.33;3012.33
72031;PMS5003;49185;42.320;23.198;2024-02-21T08:12:22;3067.33;3067.33;3067.33
72031;PMS5003;49185;42.320;23.198;2024-02-21T08:14:47;3072.00;3072.00;3072.00
72031;PMS5003;49185;42.320;23.198;2024-02-21T08:17:12;3029.00;3029.00;3029.00
72031;PMS5003;49185;42.320;23.198;2024-02-21T08:19:38;3054.00;3054.00;3054.00
72031;PMS5003;49185;42.320;23.198;2024-02-21T08:22:03;3073.67;3073.67;3073.67
72031;PMS5003;49185;42.320;23.198;2024-02-21T08:24:29;3064.67;3064.67;3064.67
72031;PMS5003;49185;42.320;23.198;2024-02-21T08:26:54;3091.67;3091.67;3091.67
72031;PMS5003;49185;42.320;23.198;2024-02-21T08:29:19;3096.67;3096.67;3096.67
72031;PMS5003;49185;42.320;23.198;2024-02-21T08:31:45;3081.00;3081.00;3081.00
72031;PMS5003;49185;42.320;23.198;2024-02-21T08:34:10;3073.67;3073.67;3073.67
72031;PMS5003;49185;42.320;23.198;2024-02-21T08:36:36;3009.67;3009.67;3009.67
72031;PMS5003;49185;42.320;23.198;2024-02-21T08:39:02;3118.00;3118.00;3118.00
72031;PMS5003;49185;42.320;23.198;2024-02-21T08:41:30;3097.00;3097.00;3097.00
72031;PMS5003;49185;42.320;23.198;2024-02-21T08:43:56;3120.50;3120.50;3120.50
72031;PMS5003;49185;42.320;23.198;2024-02-21T08:46:21;3063.00;3063.00;3063.00
72031;PMS5003;49185;42.320;23.198;2024-02-21T08:48:47;3085.33;3085.33;3085.33
72031;PMS5003;49185;42.320;23.198;2024-02-21T08:51:12;3079.67;3079.67;3079.67
72031;PMS5003;49185;42.320;23.198;2024-02-21T08:53:38;3090.00;3090.00;3090.00
72031;PMS5003;49185;42.320;23.198;2024-02-21T08:56:04;3110.00;3110.00;3110.00
72031;PMS5003;49185;42.320;23.198;2024-02-21T08:58:30;3146.50;3146.50;3146.50
72031;PMS5003;49185;42.320;23.198;2024-02-21T09:00:55;3138.33;3138.33;3138.33
72031;PMS5003;49185;42.320;23.198;2024-02-21T09:03:21;3122.33;3122.33;3122.33
72031;PMS5003;49185;42.320;23.198;2024-02-21T09:05:46;3122.33;3122.33;3122.33
72031;PMS5003;49185;42.320;23.198;2024-02-21T09:08:11;3113.33;3113.33;3113.33
72031;PMS5003;49185;42.320;23.198;2024-02-21T09:10:37;3090.00;3090.00;3090.00
72031;PMS5003;49185;42.320;23.198;2024-02-21T09:13:04;3120.50;3120.50;3120.50
72031;PMS5003;49185;42.320;23.198;2024-02-21T09:15:29;3096.67;3096.67;3096.67
72031;PMS5003;49185;42.320;23.198;2024-02-21T09:17:55;3116.33;3116.33;3116.33
72031;PMS5003;49185;42.320;23.198;2024-02-21T09:20:20;3127.33;3127.33;3127.33
72031;PMS5003;49185;42.320;23.198;2024-02-21T09:22:46;3155.67;3155.67;3155.67
72031;PMS5003;49185;42.320;23.198;2024-02-21T09:25:11;3135.00;3135.00;3135.00
72031;PMS5003;49185;42.320;23.198;2024-02-21T09:27:40;3144.00;3144.00;3144.00
72031;PMS5003;49185;42.320;23.198;2024-02-21T09:30:05;3118.00;3118.00;3118.00
72031;PMS5003;49185;42.320;23.198;2024-02-21T09:32:31;3118.00;3118.00;3118.00
72031;PMS5003;49185;42.320;23.198;2024-02-21T09:34:57;3155.67;3155.67;3155.67
72031;PMS5003;49185;42.320;23.198;2024-02-21T09:37:22;3165.67;3165.67;3165.67
72031;PMS5003;49185;42.320;23.198;2024-02-21T09:39:47;3107.00;3107.00;3107.00
72031;PMS5003;49185;42.320;23.198;2024-02-21T09:42:13;3157.33;3157.33;3157.33
72031;PMS5003;49185;42.320;23.198;2024-02-21T09:44:43;3160.50;3160.50;3160.50
72031;PMS5003;49185;42.320;23.198;2024-02-21T09:47:12;3146.50;3146.50;3146.50
72031;PMS5003;49185;42.320;23.198;2024-02-21T09:49:49;3155.50;3155.50;3155.50
72031;PMS5003;49185;42.320;23.198;2024-02-21T09:52:15;3136.67;3136.67;3136.67
72031;PMS5003;49185;42.320;23.198;2024-02-21T09:54:40;3160.67;3160.67;3160.67
72031;PMS5003;49185;42.320;23.198;2024-02-21T09:57:07;3141.50;3141.50;3141.50
72031;PMS5003;49185;42.320;23.198;2024-02-21T09:59:33;3144.00;3144.00;3144.00
72031;PMS5003;49185;42.320;23.198;2024-02-21T10:01:58;3170.67;3170.67;3170.67
72031;PMS5003;49185;42.320;23.198;2024-02-21T10:04:24;3160.50;3160.50;3160.50
72031;PMS5003;49185;42.320;23.198;2024-02-21T10:06:49;3179.67;3179.67;3179.67
72031;PMS5003;49185;42.320;23.198;2024-02-21T10:11:51;3160.50;3160.50;3160.50
72031;PMS5003;49185;42.320;23.198;2024-02-21T10:14:16;3159.00;3159.00;3159.00
72031;PMS5003;49185;42.320;23.198;2024-02-21T10:16:41;3157.33;3157.33;3157.33
72031;PMS5003;49185;42.320;23.198;2024-02-21T10:19:15;3155.67;3155.67;3155.67
72031;PMS5003;49185;42.320;23.198;2024-02-21T10:21:42;3158.00;3158.00;3158.00
72031;PMS5003;49185;42.320;23.198;2024-02-21T10:24:07;3174.67;3174.67;3174.67
72031;PMS5003;49185;42.320;23.198;2024-02-21T10:26:32;3186.33;3186.33;3186.33
72031;PMS5003;49185;42.320;23.198;2024-02-21T10:28:58;3149.00;3149.00;3149.00
72031;PMS5003;49185;42.320;23.198;2024-02-21T10:31:27;3137.00;3137.00;3137.00
72031;PMS5003;49185;42.320;23.198;2024-02-21T10:33:59;3224.00;3224.00;3224.00
72031;PMS5003;49185;42.320;23.198;2024-02-21T10:36:25;3180.00;3180.00;3180.00
72031;PMS5003;49185;42.320;23.198;2024-02-21T10:38:51;3230.67;3230.67;3230.67
72031;PMS5003;49185;42.320;23.198;2024-02-21T10:41:19;3254.50;3254.50;3254.50
72031;PMS5003;49185;42.320;23.198;2024-02-21T10:43:46;3259.50;3259.50;3259.50
72031;PMS5003;49185;42.320;23.198;2024-02-21T10:46:15;3224.00;3224.00;3224.00
72031;PMS5003;49185;42.320;23.198;2024-02-21T10:48:45;3229.00;3229.00;3229.00
72031;PMS5003;49185;42.320;23.198;2024-02-21T10:51:15;3127.00;3127.00;3127.00
72031;PMS5003;49185;42.320;23.198;2024-02-21T10:53:44;3249.50;3249.50;3249.50
72031;PMS5003;49185;42.320;23.198;2024-02-21T10:56:22;3175.00;3175.00;3175.00
72031;PMS5003;49185;42.320;23.198;2024-02-21T10:58:53;3241.50;3241.50;3241.50
72031;PMS5003;49185;42.320;23.198;2024-02-21T11:01:19;3192.00;3192.00;3192.00
72031;PMS5003;49185;42.320;23.198;2024-02-21T11:03:45;3234.00;3234.00;3234.00
72031;PMS5003;49185;42.320;23.198;2024-02-21T11:06:12;3187.00;3187.00;3187.00
72031;PMS5003;49185;42.320;23.198;2024-02-21T11:08:40;3219.00;3219.00;3219.00
72031;PMS5003;49185;42.320;23.198;2024-02-21T11:11:05;3224.00;3224.00;3224.00
72031;PMS5003;49185;42.320;23.198;2024-02-21T11:13:34;3244.33;3244.33;3244.33
72031;PMS5003;49185;42.320;23.198;2024-02-21T11:16:09;3244.00;3244.00;3244.00
72031;PMS5003;49185;42.320;23.198;2024-02-21T11:18:36;3236.50;3236.50;3236.50
72031;PMS5003;49185;42.320;23.198;2024-02-21T11:21:02;3280.50;3280.50;3280.50
72031;PMS5003;49185;42.320;23.198;2024-02-21T11:23:28;3239.00;3239.00;3239.00
72031;PMS5003;49185;42.320;23.198;2024-02-21T11:26:03;3259.33;3259.33;3259.33
72031;PMS5003;49185;42.320;23.198;2024-02-21T11:28:32;3295.50;3295.50;3295.50
72031;PMS5003;49185;42.320;23.198;2024-02-21T11:31:06;3287.00;3287.00;3287.00
72031;PMS5003;49185;42.320;23.198;2024-02-21T11:33:41;3192.00;3192.00;3192.00
72031;PMS5003;49185;42.320;23.198;2024-02-21T11:36:10;3231.50;3231.50;3231.50
72031;PMS5003;49185;42.320;23.198;2024-02-21T11:38:36;3293.00;3293.00;3293.00
72031;PMS5003;49185;42.320;23.198;2024-02-21T11:41:01;3201.33;3201.33;3201.33
72031;PMS5003;49185;42.320;23.198;2024-02-21T11:43:27;3308.50;3308.50;3308.50
72031;PMS5003;49185;42.320;23.198;2024-02-21T11:46:02;3235.67;3235.67;3235.67
72031;PMS5003;49185;42.320;23.198;2024-02-21T11:48:27;3175.00;3175.00;3175.00
72031;PMS5003;49185;42.320;23.198;2024-02-21T11:50:53;3244.33;3244.33;3244.33
72031;PMS5003;49185;42.320;23.198;2024-02-21T11:53:20;3216.50;3216.50;3216.50
72031;PMS5003;49185;42.320;23.198;2024-02-21T11:55:46;3269.50;3269.50;3269.50
72031;PMS5003;49185;42.320;23.198;2024-02-21T11:58:11;3215.67;3215.67;3215.67
72031;PMS5003;49185;42.320;23.198;2024-02-21T12:00:36;3207.33;3207.33;3207.33
72031;PMS5003;49185;42.320;23.198;2024-02-21T12:03:02;3205.67;3205.67;3205.67
72031;PMS5003;49185;42.320;23.198;2024-02-21T12:05:29;3216.50;3216.50;3216.50
72031;PMS5003;49185;42.320;23.198;2024-02-21T12:07:55;3196.33;3196.33;3196.33
72031;PMS5003;49185;42.320;23.198;2024-02-21T12:10:20;3224.00;3224.00;3224.00
72031;PMS5003;49185;42.320;23.198;2024-02-21T12:12:45;3254.33;3254.33;3254.33
72031;PMS5003;49185;42.320;23.198;2024-02-21T12:15:11;3264.33;3264.33;3264.33
72031;PMS5003;49185;42.320;23.198;2024-02-21T12:17:36;3261.00;3261.00;3261.00
72031;PMS5003;49185;42.320;23.198;2024-02-21T12:20:02;3226.50;3226.50;3226.50
72031;PMS5003;49185;42.320;23.198;2024-02-21T12:22:28;3219.00;3219.00;3219.00
72031;PMS5003;49185;42.320;23.198;2024-02-21T12:24:54;3197.00;3197.00;3197.00
72031;PMS5003;49185;42.320;23.198;2024-02-21T12:27:20;3108.33;3108.33;3108.33